sensor_id;sensor_type;location;lat;lon;timestamp;P1;durP1;ratioP1;P2;durP2;ratioP2
36241;SDS011;22283;42.748;12.732;2022-12-24T00:00:33;7.90;;;2.17;;
36241;SDS011;22283;42.748;12.732;2022-12-24T00:05:36;5.80;;;2.60;;
36241;SDS011;22283;42.748;12.732;2022-12-24T00:10:37;7.18;;;2.40;;
36241;SDS011;22283;42.748;12.732;2022-12-24T00:15:37;8.73;;;2.80;;
36241;SDS011;22283;42.748;12.732;2022-12-24T00:20:38;4.53;;;2.53;;
36241;SDS011;22283;42.748;12.732;2022-12-24T00:25:39;6.40;;;2.57;;
36241;SDS011;22283;42.748;12.732;2022-12-24T00:30:40;4.40;;;2.28;;
36241;SDS011;22283;42.748;12.732;2022-12-24T00:35:42;6.43;;;2.85;;
36241;SDS011;22283;42.748;12.732;2022-12-24T00:40:42;8.00;;;3.30;;
36241;SDS011;22283;42.748;12.732;2022-12-24T00:45:43;13.23;;;7.20;;
36241;SDS011;22283;42.748;12.732;2022-12-24T00:50:44;6.63;;;3.20;;
36241;SDS011;22283;42.748;12.732;2022-12-24T00:55:44;12.90;;;6.97;;
36241;SDS011;22283;42.748;12.732;2022-12-24T01:00:45;10.97;;;5.83;;
36241;SDS011;22283;42.748;12.732;2022-12-24T01:05:45;10.97;;;6.87;;
36241;SDS011;22283;42.748;12.732;2022-12-24T01:10:50;5.65;;;3.30;;
36241;SDS011;22283;42.748;12.732;2022-12-24T01:15:51;7.47;;;4.03;;
36241;SDS011;22283;42.748;12.732;2022-12-24T01:20:55;6.53;;;3.40;;
36241;SDS011;22283;42.748;12.732;2022-12-24T01:26:01;4.78;;;3.17;;
36241;SDS011;22283;42.748;12.732;2022-12-24T01:31:09;12.50;;;3.20;;
36241;SDS011;22283;42.748;12.732;2022-12-24T01:36:15;15.27;;;3.45;;
36241;SDS011;22283;42.748;12.732;2022-12-24T01:41:18;7.28;;;1.83;;
36241;SDS011;22283;42.748;12.732;2022-12-24T01:46:39;7.57;;;1.75;;
36241;SDS011;22283;42.748;12.732;2022-12-24T01:51:41;8.35;;;2.15;;
36241;SDS011;22283;42.748;12.732;2022-12-24T01:56:48;4.43;;;2.83;;
36241;SDS011;22283;42.748;12.732;2022-12-24T02:01:52;6.60;;;2.13;;
36241;SDS011;22283;42.748;12.732;2022-12-24T02:06:53;8.47;;;2.47;;
36241;SDS011;22283;42.748;12.732;2022-12-24T02:11:54;5.07;;;2.00;;
36241;SDS011;22283;42.748;12.732;2022-12-24T02:17:20;8.85;;;2.30;;
36241;SDS011;22283;42.748;12.732;2022-12-24T02:22:32;6.78;;;2.30;;
36241;SDS011;22283;42.748;12.732;2022-12-24T02:33:29;10.75;;;3.50;;
36241;SDS011;22283;42.748;12.732;2022-12-24T02:43:48;6.85;;;3.00;;
36241;SDS011;22283;42.748;12.732;2022-12-24T02:48:52;6.00;;;3.20;;
36241;SDS011;22283;42.748;12.732;2022-12-24T02:53:53;7.55;;;2.78;;
36241;SDS011;22283;42.748;12.732;2022-12-24T02:59:07;5.17;;;2.37;;
36241;SDS011;22283;42.748;12.732;2022-12-24T03:04:36;4.47;;;1.90;;
36241;SDS011;22283;42.748;12.732;2022-12-24T03:15:06;6.55;;;2.70;;
36241;SDS011;22283;42.748;12.732;2022-12-24T03:20:09;7.43;;;2.53;;
36241;SDS011;22283;42.748;12.732;2022-12-24T03:25:11;3.55;;;2.00;;
36241;SDS011;22283;42.748;12.732;2022-12-24T03:30:12;9.03;;;3.93;;
36241;SDS011;22283;42.748;12.732;2022-12-24T03:35:31;17.20;;;10.63;;
36241;SDS011;22283;42.748;12.732;2022-12-24T03:40:32;18.97;;;13.20;;
36241;SDS011;22283;42.748;12.732;2022-12-24T03:45:33;25.80;;;16.10;;
36241;SDS011;22283;42.748;12.732;2022-12-24T03:50:34;26.37;;;17.53;;
36241;SDS011;22283;42.748;12.732;2022-12-24T03:55:34;24.67;;;15.97;;
36241;SDS011;22283;42.748;12.732;2022-12-24T04:00:35;18.90;;;14.37;;
36241;SDS011;22283;42.748;12.732;2022-12-24T04:05:36;22.33;;;10.90;;
36241;SDS011;22283;42.748;12.732;2022-12-24T04:10:36;6.97;;;4.60;;
36241;SDS011;22283;42.748;12.732;2022-12-24T04:15:37;7.93;;;3.63;;
36241;SDS011;22283;42.748;12.732;2022-12-24T04:20:37;7.53;;;3.50;;
36241;SDS011;22283;42.748;12.732;2022-12-24T04:25:38;6.60;;;3.17;;
36241;SDS011;22283;42.748;12.732;2022-12-24T04:30:39;9.30;;;3.20;;
36241;SDS011;22283;42.748;12.732;2022-12-24T04:35:40;20.40;;;11.30;;
36241;SDS011;22283;42.748;12.732;2022-12-24T04:40:41;21.60;;;15.57;;
36241;SDS011;22283;42.748;12.732;2022-12-24T04:45:42;21.50;;;14.33;;
36241;SDS011;22283;42.748;12.732;2022-12-24T04:50:43;23.17;;;13.90;;
36241;SDS011;22283;42.748;12.732;2022-12-24T04:55:44;19.80;;;14.67;;
36241;SDS011;22283;42.748;12.732;2022-12-24T05:00:45;19.77;;;12.75;;
36241;SDS011;22283;42.748;12.732;2022-12-24T05:05:45;20.37;;;11.30;;
36241;SDS011;22283;42.748;12.732;2022-12-24T05:10:53;20.50;;;13.70;;
36241;SDS011;22283;42.748;12.732;2022-12-24T05:15:55;33.55;;;16.65;;
36241;SDS011;22283;42.748;12.732;2022-12-24T05:20:55;15.73;;;10.97;;
36241;SDS011;22283;42.748;12.732;2022-12-24T05:25:56;20.20;;;11.40;;
36241;SDS011;22283;42.748;12.732;2022-12-24T05:31:16;14.45;;;8.95;;
36241;SDS011;22283;42.748;12.732;2022-12-24T05:41:18;16.70;;;9.05;;
36241;SDS011;22283;42.748;12.732;2022-12-24T05:46:19;20.87;;;13.10;;
36241;SDS011;22283;42.748;12.732;2022-12-24T05:51:21;28.10;;;18.92;;
36241;SDS011;22283;42.748;12.732;2022-12-24T05:56:23;29.58;;;14.85;;
36241;SDS011;22283;42.748;12.732;2022-12-24T06:01:24;22.10;;;12.52;;
36241;SDS011;22283;42.748;12.732;2022-12-24T06:06:26;27.03;;;14.70;;
36241;SDS011;22283;42.748;12.732;2022-12-24T06:11:27;24.40;;;16.95;;
36241;SDS011;22283;42.748;12.732;2022-12-24T06:16:28;25.83;;;18.20;;
36241;SDS011;22283;42.748;12.732;2022-12-24T06:21:29;17.80;;;11.80;;
36241;SDS011;22283;42.748;12.732;2022-12-24T06:26:29;16.93;;;9.73;;
36241;SDS011;22283;42.748;12.732;2022-12-24T06:31:30;19.57;;;7.37;;
36241;SDS011;22283;42.748;12.732;2022-12-24T06:36:31;24.17;;;9.47;;
36241;SDS011;22283;42.748;12.732;2022-12-24T06:41:31;23.43;;;12.00;;
36241;SDS011;22283;42.748;12.732;2022-12-24T06:46:32;26.67;;;14.10;;
36241;SDS011;22283;42.748;12.732;2022-12-24T06:51:32;25.83;;;11.90;;
36241;SDS011;22283;42.748;12.732;2022-12-24T06:56:33;16.53;;;9.97;;
36241;SDS011;22283;42.748;12.732;2022-12-24T07:01:34;19.37;;;11.67;;
36241;SDS011;22283;42.748;12.732;2022-12-24T07:06:35;24.20;;;15.00;;
36241;SDS011;22283;42.748;12.732;2022-12-24T07:11:35;28.67;;;13.03;;
36241;SDS011;22283;42.748;12.732;2022-12-24T07:16:36;19.73;;;11.33;;
36241;SDS011;22283;42.748;12.732;2022-12-24T07:21:37;22.90;;;10.60;;
36241;SDS011;22283;42.748;12.732;2022-12-24T07:26:37;35.33;;;18.90;;
36241;SDS011;22283;42.748;12.732;2022-12-24T07:31:38;28.07;;;14.73;;
36241;SDS011;22283;42.748;12.732;2022-12-24T07:36:39;21.37;;;10.93;;
36241;SDS011;22283;42.748;12.732;2022-12-24T07:41:39;22.10;;;11.87;;
36241;SDS011;22283;42.748;12.732;2022-12-24T07:46:40;26.40;;;13.30;;
36241;SDS011;22283;42.748;12.732;2022-12-24T07:51:41;31.80;;;16.83;;
36241;SDS011;22283;42.748;12.732;2022-12-24T07:56:42;31.00;;;14.23;;
36241;SDS011;22283;42.748;12.732;2022-12-24T08:01:42;56.13;;;16.27;;
36241;SDS011;22283;42.748;12.732;2022-12-24T08:06:43;45.23;;;27.27;;
36241;SDS011;22283;42.748;12.732;2022-12-24T08:11:44;47.03;;;21.07;;
36241;SDS011;22283;42.748;12.732;2022-12-24T08:16:44;21.30;;;8.90;;
36241;SDS011;22283;42.748;12.732;2022-12-24T08:21:45;30.80;;;9.13;;
36241;SDS011;22283;42.748;12.732;2022-12-24T08:26:45;20.17;;;7.47;;
36241;SDS011;22283;42.748;12.732;2022-12-24T08:31:46;32.57;;;7.73;;
36241;SDS011;22283;42.748;12.732;2022-12-24T08:36:47;18.50;;;8.10;;
36241;SDS011;22283;42.748;12.732;2022-12-24T08:41:47;19.57;;;9.67;;
36241;SDS011;22283;42.748;12.732;2022-12-24T08:46:48;22.80;;;10.93;;
36241;SDS011;22283;42.748;12.732;2022-12-24T08:51:50;20.73;;;11.03;;
36241;SDS011;22283;42.748;12.732;2022-12-24T08:56:52;30.40;;;19.23;;
36241;SDS011;22283;42.748;12.732;2022-12-24T09:01:53;33.30;;;21.20;;
36241;SDS011;22283;42.748;12.732;2022-12-24T09:06:53;33.37;;;22.20;;
36241;SDS011;22283;42.748;12.732;2022-12-24T09:11:54;27.27;;;18.17;;
36241;SDS011;22283;42.748;12.732;2022-12-24T09:16:54;32.40;;;19.33;;
36241;SDS011;22283;42.748;12.732;2022-12-24T09:22:02;37.95;;;27.40;;
36241;SDS011;22283;42.748;12.732;2022-12-24T09:32:04;40.10;;;25.90;;
36241;SDS011;22283;42.748;12.732;2022-12-24T09:37:05;38.85;;;26.95;;
36241;SDS011;22283;42.748;12.732;2022-12-24T09:47:36;25.90;;;21.40;;
36241;SDS011;22283;42.748;12.732;2022-12-24T09:52:43;32.67;;;20.38;;
36241;SDS011;22283;42.748;12.732;2022-12-24T09:57:45;30.70;;;18.17;;
36241;SDS011;22283;42.748;12.732;2022-12-24T10:02:49;23.95;;;17.33;;
36241;SDS011;22283;42.748;12.732;2022-12-24T10:07:53;37.53;;;21.77;;
36241;SDS011;22283;42.748;12.732;2022-12-24T10:23:46;26.45;;;17.20;;
36241;SDS011;22283;42.748;12.732;2022-12-24T10:28:55;23.50;;;16.25;;
36241;SDS011;22283;42.748;12.732;2022-12-24T10:34:01;25.50;;;15.60;;
36241;SDS011;22283;42.748;12.732;2022-12-24T10:39:19;33.72;;;19.20;;
36241;SDS011;22283;42.748;12.732;2022-12-24T10:44:23;33.80;;;18.63;;
36241;SDS011;22283;42.748;12.732;2022-12-24T10:49:43;22.45;;;13.75;;
36241;SDS011;22283;42.748;12.732;2022-12-24T11:00:05;24.07;;;13.60;;
36241;SDS011;22283;42.748;12.732;2022-12-24T11:05:30;19.73;;;12.13;;
36241;SDS011;22283;42.748;12.732;2022-12-24T11:10:35;18.60;;;11.48;;
36241;SDS011;22283;42.748;12.732;2022-12-24T11:15:39;17.50;;;8.63;;
36241;SDS011;22283;42.748;12.732;2022-12-24T11:20:40;17.00;;;8.60;;
36241;SDS011;22283;42.748;12.732;2022-12-24T11:25:49;16.33;;;9.13;;
36241;SDS011;22283;42.748;12.732;2022-12-24T11:30:55;15.02;;;8.38;;
36241;SDS011;22283;42.748;12.732;2022-12-24T11:36:19;18.92;;;7.50;;
36241;SDS011;22283;42.748;12.732;2022-12-24T11:41:23;16.25;;;8.85;;
36241;SDS011;22283;42.748;12.732;2022-12-24T11:51:26;20.73;;;11.37;;
36241;SDS011;22283;42.748;12.732;2022-12-24T11:56:31;23.17;;;10.70;;
36241;SDS011;22283;42.748;12.732;2022-12-24T12:01:51;18.23;;;11.63;;
36241;SDS011;22283;42.748;12.732;2022-12-24T12:07:00;23.23;;;12.75;;
36241;SDS011;22283;42.748;12.732;2022-12-24T12:22:45;30.95;;;16.85;;
36241;SDS011;22283;42.748;12.732;2022-12-24T12:28:17;25.40;;;15.07;;
36241;SDS011;22283;42.748;12.732;2022-12-24T12:33:24;23.38;;;13.45;;
36241;SDS011;22283;42.748;12.732;2022-12-24T12:38:46;28.20;;;15.00;;
36241;SDS011;22283;42.748;12.732;2022-12-24T13:10:12;42.58;;;29.55;;
36241;SDS011;22283;42.748;12.732;2022-12-24T13:20:28;74.03;;;47.13;;
36241;SDS011;22283;42.748;12.732;2022-12-24T13:25:36;37.05;;;26.17;;
36241;SDS011;22283;42.748;12.732;2022-12-24T13:30:40;33.65;;;22.70;;
36241;SDS011;22283;42.748;12.732;2022-12-24T13:35:57;45.90;;;24.10;;
36241;SDS011;22283;42.748;12.732;2022-12-24T13:46:50;34.23;;;21.87;;
36241;SDS011;22283;42.748;12.732;2022-12-24T13:52:03;43.17;;;23.92;;
36241;SDS011;22283;42.748;12.732;2022-12-24T14:02:31;42.53;;;23.35;;
36241;SDS011;22283;42.748;12.732;2022-12-24T14:07:34;32.90;;;23.70;;
36241;SDS011;22283;42.748;12.732;2022-12-24T14:12:54;50.67;;;33.47;;
36241;SDS011;22283;42.748;12.732;2022-12-24T14:17:55;64.55;;;41.97;;
36241;SDS011;22283;42.748;12.732;2022-12-24T14:22:55;60.83;;;33.77;;
36241;SDS011;22283;42.748;12.732;2022-12-24T14:28:03;47.13;;;29.02;;
36241;SDS011;22283;42.748;12.732;2022-12-24T14:33:28;45.35;;;31.80;;
36241;SDS011;22283;42.748;12.732;2022-12-24T14:38:29;48.70;;;30.13;;
36241;SDS011;22283;42.748;12.732;2022-12-24T14:43:41;43.35;;;27.77;;
36241;SDS011;22283;42.748;12.732;2022-12-24T14:48:59;43.08;;;25.95;;
36241;SDS011;22283;42.748;12.732;2022-12-24T14:59:30;62.28;;;30.60;;
36241;SDS011;22283;42.748;12.732;2022-12-24T15:04:41;58.00;;;32.30;;
36241;SDS011;22283;42.748;12.732;2022-12-24T15:09:41;41.80;;;29.03;;
36241;SDS011;22283;42.748;12.732;2022-12-24T15:14:43;44.22;;;26.83;;
36241;SDS011;22283;42.748;12.732;2022-12-24T15:19:46;57.28;;;30.10;;
36241;SDS011;22283;42.748;12.732;2022-12-24T15:24:51;41.22;;;24.38;;
36241;SDS011;22283;42.748;12.732;2022-12-24T15:29:56;34.20;;;21.77;;
36241;SDS011;22283;42.748;12.732;2022-12-24T15:34:57;42.75;;;21.73;;
36241;SDS011;22283;42.748;12.732;2022-12-24T15:45:06;29.42;;;14.48;;
36241;SDS011;22283;42.748;12.732;2022-12-24T15:50:24;29.50;;;10.93;;
36241;SDS011;22283;42.748;12.732;2022-12-24T15:55:32;21.20;;;10.88;;
36241;SDS011;22283;42.748;12.732;2022-12-24T16:00:35;19.30;;;8.98;;
36241;SDS011;22283;42.748;12.732;2022-12-24T16:05:37;18.60;;;8.87;;
36241;SDS011;22283;42.748;12.732;2022-12-24T16:10:40;24.38;;;10.35;;
36241;SDS011;22283;42.748;12.732;2022-12-24T16:15:47;22.15;;;12.73;;
36241;SDS011;22283;42.748;12.732;2022-12-24T16:20:53;23.05;;;13.05;;
36241;SDS011;22283;42.748;12.732;2022-12-24T16:25:56;23.63;;;11.35;;
36241;SDS011;22283;42.748;12.732;2022-12-24T16:30:57;29.08;;;16.85;;
36241;SDS011;22283;42.748;12.732;2022-12-24T16:35:58;31.30;;;13.33;;
36241;SDS011;22283;42.748;12.732;2022-12-24T16:40:59;24.83;;;13.67;;
36241;SDS011;22283;42.748;12.732;2022-12-24T16:46:04;26.23;;;11.97;;
36241;SDS011;22283;42.748;12.732;2022-12-24T16:51:06;27.45;;;14.85;;
36241;SDS011;22283;42.748;12.732;2022-12-24T16:56:06;24.43;;;13.67;;
36241;SDS011;22283;42.748;12.732;2022-12-24T17:01:07;26.60;;;13.37;;
36241;SDS011;22283;42.748;12.732;2022-12-24T17:06:08;27.73;;;15.32;;
36241;SDS011;22283;42.748;12.732;2022-12-24T17:11:09;26.33;;;15.93;;
36241;SDS011;22283;42.748;12.732;2022-12-24T17:16:09;23.87;;;12.60;;
36241;SDS011;22283;42.748;12.732;2022-12-24T17:21:10;22.63;;;9.07;;
36241;SDS011;22283;42.748;12.732;2022-12-24T17:26:13;24.27;;;13.82;;
36241;SDS011;22283;42.748;12.732;2022-12-24T17:31:15;23.52;;;11.95;;
36241;SDS011;22283;42.748;12.732;2022-12-24T17:36:16;19.03;;;10.77;;
36241;SDS011;22283;42.748;12.732;2022-12-24T17:41:18;21.67;;;9.93;;
36241;SDS011;22283;42.748;12.732;2022-12-24T17:46:20;33.10;;;22.13;;
36241;SDS011;22283;42.748;12.732;2022-12-24T17:51:22;24.35;;;13.05;;
36241;SDS011;22283;42.748;12.732;2022-12-24T17:56:23;18.10;;;11.77;;
36241;SDS011;22283;42.748;12.732;2022-12-24T18:01:24;22.47;;;15.00;;
36241;SDS011;22283;42.748;12.732;2022-12-24T18:06:29;25.38;;;15.55;;
36241;SDS011;22283;42.748;12.732;2022-12-24T18:11:31;24.53;;;12.80;;
36241;SDS011;22283;42.748;12.732;2022-12-24T18:16:35;22.98;;;13.82;;
36241;SDS011;22283;42.748;12.732;2022-12-24T18:21:37;27.20;;;14.05;;
36241;SDS011;22283;42.748;12.732;2022-12-24T18:26:39;26.38;;;13.15;;
36241;SDS011;22283;42.748;12.732;2022-12-24T18:31:40;42.57;;;18.13;;
36241;SDS011;22283;42.748;12.732;2022-12-24T18:36:40;34.20;;;14.77;;
36241;SDS011;22283;42.748;12.732;2022-12-24T18:41:41;30.03;;;15.73;;
36241;SDS011;22283;42.748;12.732;2022-12-24T18:46:42;32.07;;;18.20;;
36241;SDS011;22283;42.748;12.732;2022-12-24T18:51:43;26.97;;;14.83;;
36241;SDS011;22283;42.748;12.732;2022-12-24T18:56:43;35.47;;;15.43;;
36241;SDS011;22283;42.748;12.732;2022-12-24T19:01:44;28.77;;;15.40;;
36241;SDS011;22283;42.748;12.732;2022-12-24T19:06:44;25.67;;;15.60;;
36241;SDS011;22283;42.748;12.732;2022-12-24T19:11:45;25.57;;;15.73;;
36241;SDS011;22283;42.748;12.732;2022-12-24T19:16:45;19.63;;;12.33;;
36241;SDS011;22283;42.748;12.732;2022-12-24T19:21:46;19.07;;;12.00;;
36241;SDS011;22283;42.748;12.732;2022-12-24T19:26:47;22.73;;;11.57;;
36241;SDS011;22283;42.748;12.732;2022-12-24T19:31:48;43.53;;;24.23;;
36241;SDS011;22283;42.748;12.732;2022-12-24T19:36:50;36.15;;;18.50;;
36241;SDS011;22283;42.748;12.732;2022-12-24T19:41:50;66.97;;;43.30;;
36241;SDS011;22283;42.748;12.732;2022-12-24T19:46:51;25.17;;;16.07;;
36241;SDS011;22283;42.748;12.732;2022-12-24T19:51:52;25.10;;;14.90;;
36241;SDS011;22283;42.748;12.732;2022-12-24T19:56:53;26.95;;;13.77;;
36241;SDS011;22283;42.748;12.732;2022-12-24T20:01:54;28.93;;;16.17;;
36241;SDS011;22283;42.748;12.732;2022-12-24T20:06:55;39.17;;;23.90;;
36241;SDS011;22283;42.748;12.732;2022-12-24T20:11:55;26.33;;;17.90;;
36241;SDS011;22283;42.748;12.732;2022-12-24T20:16:56;26.80;;;14.23;;
36241;SDS011;22283;42.748;12.732;2022-12-24T20:21:57;29.43;;;18.53;;
36241;SDS011;22283;42.748;12.732;2022-12-24T20:26:57;24.33;;;14.80;;
36241;SDS011;22283;42.748;12.732;2022-12-24T20:31:58;21.57;;;12.40;;
36241;SDS011;22283;42.748;12.732;2022-12-24T20:36:59;42.60;;;25.93;;
36241;SDS011;22283;42.748;12.732;2022-12-24T20:41:59;24.90;;;14.10;;
36241;SDS011;22283;42.748;12.732;2022-12-24T20:47:00;37.17;;;22.67;;
36241;SDS011;22283;42.748;12.732;2022-12-24T20:52:01;33.97;;;23.00;;
36241;SDS011;22283;42.748;12.732;2022-12-24T20:57:01;27.67;;;16.67;;
36241;SDS011;22283;42.748;12.732;2022-12-24T21:02:02;22.30;;;14.80;;
36241;SDS011;22283;42.748;12.732;2022-12-24T21:07:03;31.73;;;17.30;;
36241;SDS011;22283;42.748;12.732;2022-12-24T21:12:04;28.03;;;14.50;;
36241;SDS011;22283;42.748;12.732;2022-12-24T21:17:24;21.92;;;13.55;;
36241;SDS011;22283;42.748;12.732;2022-12-24T21:22:25;29.80;;;12.87;;
36241;SDS011;22283;42.748;12.732;2022-12-24T21:27:27;87.53;;;54.67;;
36241;SDS011;22283;42.748;12.732;2022-12-24T21:32:28;23.63;;;13.25;;
36241;SDS011;22283;42.748;12.732;2022-12-24T21:37:29;33.27;;;18.33;;
36241;SDS011;22283;42.748;12.732;2022-12-24T21:42:33;24.37;;;11.63;;
36241;SDS011;22283;42.748;12.732;2022-12-24T21:47:35;25.92;;;13.05;;
36241;SDS011;22283;42.748;12.732;2022-12-24T21:52:37;20.80;;;10.95;;
36241;SDS011;22283;42.748;12.732;2022-12-24T21:57:38;36.17;;;20.93;;
36241;SDS011;22283;42.748;12.732;2022-12-24T22:02:54;24.27;;;11.38;;
36241;SDS011;22283;42.748;12.732;2022-12-24T22:07:56;28.67;;;10.63;;
36241;SDS011;22283;42.748;12.732;2022-12-24T22:13:16;13.65;;;7.57;;
36241;SDS011;22283;42.748;12.732;2022-12-24T22:18:18;26.48;;;14.02;;
36241;SDS011;22283;42.748;12.732;2022-12-24T22:23:20;23.48;;;13.48;;
36241;SDS011;22283;42.748;12.732;2022-12-24T22:28:21;18.10;;;8.30;;
36241;SDS011;22283;42.748;12.732;2022-12-24T22:33:21;13.30;;;7.23;;
36241;SDS011;22283;42.748;12.732;2022-12-24T22:38:22;13.67;;;8.57;;
36241;SDS011;22283;42.748;12.732;2022-12-24T22:43:22;24.13;;;9.23;;
36241;SDS011;22283;42.748;12.732;2022-12-24T22:48:23;16.60;;;8.10;;
36241;SDS011;22283;42.748;12.732;2022-12-24T22:53:24;20.97;;;9.93;;
36241;SDS011;22283;42.748;12.732;2022-12-24T22:58:25;21.37;;;7.53;;
36241;SDS011;22283;42.748;12.732;2022-12-24T23:03:26;18.13;;;8.67;;
36241;SDS011;22283;42.748;12.732;2022-12-24T23:08:30;18.40;;;9.95;;
36241;SDS011;22283;42.748;12.732;2022-12-24T23:13:32;24.52;;;14.77;;
36241;SDS011;22283;42.748;12.732;2022-12-24T23:18:52;21.98;;;9.75;;
36241;SDS011;22283;42.748;12.732;2022-12-24T23:23:55;21.95;;;10.75;;
36241;SDS011;22283;42.748;12.732;2022-12-24T23:28:57;14.52;;;6.82;;
36241;SDS011;22283;42.748;12.732;2022-12-24T23:33:57;18.80;;;9.77;;
36241;SDS011;22283;42.748;12.732;2022-12-24T23:38:58;16.90;;;7.90;;
36241;SDS011;22283;42.748;12.732;2022-12-24T23:43:58;16.13;;;6.20;;
36241;SDS011;22283;42.748;12.732;2022-12-24T23:48:59;12.87;;;6.53;;
36241;SDS011;22283;42.748;12.732;2022-12-24T23:54:00;17.43;;;8.50;;
36241;SDS011;22283;42.748;12.732;2022-12-24T23:59:00;21.50;;;10.80;;
